sensor_id;sensor_type;location;lat;lon;timestamp;P1;durP1;ratioP1;P2;durP2;ratioP2
24335;SDS011;33098;52.400;16.880;2022-07-25T00:01:23;3.80;;;2.80;;
24335;SDS011;33098;52.400;16.880;2022-07-25T00:03:50;11.40;;;3.80;;
24335;SDS011;33098;52.400;16.880;2022-07-25T00:06:17;3.40;;;3.10;;
24335;SDS011;33098;52.400;16.880;2022-07-25T00:08:43;4.80;;;3.40;;
24335;SDS011;33098;52.400;16.880;2022-07-25T00:11:10;5.10;;;3.40;;
24335;SDS011;33098;52.400;16.880;2022-07-25T00:13:36;4.50;;;3.20;;
24335;SDS011;33098;52.400;16.880;2022-07-25T00:16:03;4.90;;;3.10;;
24335;SDS011;33098;52.400;16.880;2022-07-25T00:18:30;3.70;;;3.20;;
24335;SDS011;33098;52.400;16.880;2022-07-25T00:20:57;7.20;;;3.40;;
24335;SDS011;33098;52.400;16.880;2022-07-25T00:23:24;3.60;;;3.30;;
24335;SDS011;33098;52.400;16.880;2022-07-25T00:25:50;4.60;;;3.30;;
24335;SDS011;33098;52.400;16.880;2022-07-25T00:28:17;4.80;;;3.30;;
24335;SDS011;33098;52.400;16.880;2022-07-25T00:30:44;5.70;;;3.10;;
24335;SDS011;33098;52.400;16.880;2022-07-25T00:33:10;4.80;;;3.50;;
24335;SDS011;33098;52.400;16.880;2022-07-25T00:35:37;4.70;;;3.50;;
24335;SDS011;33098;52.400;16.880;2022-07-25T00:38:03;5.20;;;3.90;;
24335;SDS011;33098;52.400;16.880;2022-07-25T00:40:30;7.50;;;4.20;;
24335;SDS011;33098;52.400;16.880;2022-07-25T00:42:57;4.20;;;3.70;;
24335;SDS011;33098;52.400;16.880;2022-07-25T00:45:23;5.10;;;3.90;;
24335;SDS011;33098;52.400;16.880;2022-07-25T00:47:50;6.50;;;4.40;;
24335;SDS011;33098;52.400;16.880;2022-07-25T00:50:16;6.80;;;4.50;;
24335;SDS011;33098;52.400;16.880;2022-07-25T00:52:43;6.10;;;4.10;;
24335;SDS011;33098;52.400;16.880;2022-07-25T00:55:11;7.50;;;4.50;;
24335;SDS011;33098;52.400;16.880;2022-07-25T00:57:38;7.50;;;4.50;;
24335;SDS011;33098;52.400;16.880;2022-07-25T01:00:05;5.80;;;4.60;;
24335;SDS011;33098;52.400;16.880;2022-07-25T01:02:35;6.40;;;4.60;;
24335;SDS011;33098;52.400;16.880;2022-07-25T01:05:02;6.60;;;4.50;;
24335;SDS011;33098;52.400;16.880;2022-07-25T01:07:30;9.50;;;4.90;;
24335;SDS011;33098;52.400;16.880;2022-07-25T01:09:58;7.60;;;4.70;;
24335;SDS011;33098;52.400;16.880;2022-07-25T01:12:25;7.00;;;4.50;;
24335;SDS011;33098;52.400;16.880;2022-07-25T01:14:51;6.60;;;5.10;;
24335;SDS011;33098;52.400;16.880;2022-07-25T01:17:18;6.90;;;4.50;;
24335;SDS011;33098;52.400;16.880;2022-07-25T01:19:45;7.40;;;4.90;;
24335;SDS011;33098;52.400;16.880;2022-07-25T01:22:12;6.10;;;4.60;;
24335;SDS011;33098;52.400;16.880;2022-07-25T01:24:39;5.80;;;4.50;;
24335;SDS011;33098;52.400;16.880;2022-07-25T01:27:05;6.60;;;4.70;;
24335;SDS011;33098;52.400;16.880;2022-07-25T01:29:32;7.40;;;5.20;;
24335;SDS011;33098;52.400;16.880;2022-07-25T01:31:58;5.70;;;4.70;;
24335;SDS011;33098;52.400;16.880;2022-07-25T01:34:25;6.30;;;4.30;;
24335;SDS011;33098;52.400;16.880;2022-07-25T01:36:52;7.10;;;4.30;;
24335;SDS011;33098;52.400;16.880;2022-07-25T01:39:18;6.70;;;4.50;;
24335;SDS011;33098;52.400;16.880;2022-07-25T01:41:45;5.10;;;4.10;;
24335;SDS011;33098;52.400;16.880;2022-07-25T01:44:11;5.30;;;4.70;;
24335;SDS011;33098;52.400;16.880;2022-07-25T01:46:38;6.10;;;4.60;;
24335;SDS011;33098;52.400;16.880;2022-07-25T01:49:05;5.00;;;4.50;;
24335;SDS011;33098;52.400;16.880;2022-07-25T01:51:31;4.90;;;4.30;;
24335;SDS011;33098;52.400;16.880;2022-07-25T01:53:58;6.00;;;4.60;;
24335;SDS011;33098;52.400;16.880;2022-07-25T01:56:24;6.90;;;4.00;;
24335;SDS011;33098;52.400;16.880;2022-07-25T01:58:51;6.30;;;4.40;;
24335;SDS011;33098;52.400;16.880;2022-07-25T02:01:17;5.90;;;4.40;;
24335;SDS011;33098;52.400;16.880;2022-07-25T02:03:44;5.40;;;4.60;;
24335;SDS011;33098;52.400;16.880;2022-07-25T02:06:10;5.30;;;4.40;;
24335;SDS011;33098;52.400;16.880;2022-07-25T02:08:37;5.80;;;4.40;;
24335;SDS011;33098;52.400;16.880;2022-07-25T02:11:04;5.80;;;4.60;;
24335;SDS011;33098;52.400;16.880;2022-07-25T02:13:31;6.70;;;4.50;;
24335;SDS011;33098;52.400;16.880;2022-07-25T02:15:58;7.30;;;4.70;;
24335;SDS011;33098;52.400;16.880;2022-07-25T02:18:25;6.10;;;4.40;;
24335;SDS011;33098;52.400;16.880;2022-07-25T02:20:52;7.10;;;4.90;;
24335;SDS011;33098;52.400;16.880;2022-07-25T02:23:18;7.40;;;4.90;;
24335;SDS011;33098;52.400;16.880;2022-07-25T02:25:45;6.90;;;4.80;;
24335;SDS011;33098;52.400;16.880;2022-07-25T02:28:11;7.40;;;4.70;;
24335;SDS011;33098;52.400;16.880;2022-07-25T02:30:38;6.50;;;4.50;;
24335;SDS011;33098;52.400;16.880;2022-07-25T02:33:04;8.30;;;4.60;;
24335;SDS011;33098;52.400;16.880;2022-07-25T02:35:31;7.20;;;4.90;;
24335;SDS011;33098;52.400;16.880;2022-07-25T02:37:58;5.50;;;4.60;;
24335;SDS011;33098;52.400;16.880;2022-07-25T02:40:24;7.80;;;5.20;;
24335;SDS011;33098;52.400;16.880;2022-07-25T02:42:51;5.50;;;4.90;;
24335;SDS011;33098;52.400;16.880;2022-07-25T02:45:17;7.00;;;5.00;;
24335;SDS011;33098;52.400;16.880;2022-07-25T02:47:44;6.20;;;4.80;;
24335;SDS011;33098;52.400;16.880;2022-07-25T02:50:10;6.80;;;4.60;;
24335;SDS011;33098;52.400;16.880;2022-07-25T02:52:37;8.00;;;5.10;;
24335;SDS011;33098;52.400;16.880;2022-07-25T02:55:04;8.50;;;5.60;;
24335;SDS011;33098;52.400;16.880;2022-07-25T02:57:31;7.90;;;5.60;;
24335;SDS011;33098;52.400;16.880;2022-07-25T02:59:58;8.20;;;5.80;;
24335;SDS011;33098;52.400;16.880;2022-07-25T03:02:24;7.50;;;5.70;;
24335;SDS011;33098;52.400;16.880;2022-07-25T03:04:51;8.10;;;5.80;;
24335;SDS011;33098;52.400;16.880;2022-07-25T03:07:17;7.30;;;5.60;;
24335;SDS011;33098;52.400;16.880;2022-07-25T03:09:43;7.90;;;5.50;;
24335;SDS011;33098;52.400;16.880;2022-07-25T03:12:10;8.70;;;5.50;;
24335;SDS011;33098;52.400;16.880;2022-07-25T03:14:36;8.00;;;5.60;;
24335;SDS011;33098;52.400;16.880;2022-07-25T03:17:03;7.80;;;5.70;;
24335;SDS011;33098;52.400;16.880;2022-07-25T03:19:29;10.00;;;5.50;;
24335;SDS011;33098;52.400;16.880;2022-07-25T03:21:56;6.90;;;5.10;;
24335;SDS011;33098;52.400;16.880;2022-07-25T03:24:23;7.50;;;5.40;;
24335;SDS011;33098;52.400;16.880;2022-07-25T03:26:49;7.60;;;5.20;;
24335;SDS011;33098;52.400;16.880;2022-07-25T03:29:16;9.70;;;5.60;;
24335;SDS011;33098;52.400;16.880;2022-07-25T03:31:42;7.80;;;5.50;;
24335;SDS011;33098;52.400;16.880;2022-07-25T03:34:09;6.70;;;5.00;;
24335;SDS011;33098;52.400;16.880;2022-07-25T03:36:35;7.60;;;5.60;;
24335;SDS011;33098;52.400;16.880;2022-07-25T03:39:02;8.00;;;5.60;;
24335;SDS011;33098;52.400;16.880;2022-07-25T03:41:28;8.70;;;5.00;;
24335;SDS011;33098;52.400;16.880;2022-07-25T03:43:55;8.50;;;5.60;;
24335;SDS011;33098;52.400;16.880;2022-07-25T03:46:21;9.70;;;5.80;;
24335;SDS011;33098;52.400;16.880;2022-07-25T03:48:48;10.00;;;5.60;;
24335;SDS011;33098;52.400;16.880;2022-07-25T03:51:14;10.70;;;5.70;;
24335;SDS011;33098;52.400;16.880;2022-07-25T03:53:41;6.10;;;5.50;;
24335;SDS011;33098;52.400;16.880;2022-07-25T03:56:30;7.90;;;5.30;;
24335;SDS011;33098;52.400;16.880;2022-07-25T03:59:01;9.10;;;5.50;;
24335;SDS011;33098;52.400;16.880;2022-07-25T04:01:28;7.70;;;5.40;;
24335;SDS011;33098;52.400;16.880;2022-07-25T04:03:54;6.90;;;5.30;;
24335;SDS011;33098;52.400;16.880;2022-07-25T04:06:21;7.70;;;5.20;;
24335;SDS011;33098;52.400;16.880;2022-07-25T04:08:48;11.00;;;5.60;;
24335;SDS011;33098;52.400;16.880;2022-07-25T04:11:15;11.00;;;6.00;;
24335;SDS011;33098;52.400;16.880;2022-07-25T04:13:42;9.80;;;5.50;;
24335;SDS011;33098;52.400;16.880;2022-07-25T04:16:08;10.10;;;5.40;;
24335;SDS011;33098;52.400;16.880;2022-07-25T04:18:35;7.90;;;5.30;;
24335;SDS011;33098;52.400;16.880;2022-07-25T04:21:02;9.60;;;5.50;;
24335;SDS011;33098;52.400;16.880;2022-07-25T04:23:30;6.40;;;5.10;;
24335;SDS011;33098;52.400;16.880;2022-07-25T04:25:57;9.40;;;5.20;;
24335;SDS011;33098;52.400;16.880;2022-07-25T04:28:23;6.90;;;4.90;;
24335;SDS011;33098;52.400;16.880;2022-07-25T04:30:50;6.10;;;5.20;;
24335;SDS011;33098;52.400;16.880;2022-07-25T04:33:17;7.70;;;5.30;;
24335;SDS011;33098;52.400;16.880;2022-07-25T04:35:44;5.70;;;5.00;;
24335;SDS011;33098;52.400;16.880;2022-07-25T04:38:11;8.20;;;5.40;;
24335;SDS011;33098;52.400;16.880;2022-07-25T04:40:37;5.50;;;5.00;;
24335;SDS011;33098;52.400;16.880;2022-07-25T04:43:04;6.80;;;5.40;;
24335;SDS011;33098;52.400;16.880;2022-07-25T04:45:31;5.60;;;4.70;;
24335;SDS011;33098;52.400;16.880;2022-07-25T04:48:00;5.90;;;5.10;;
24335;SDS011;33098;52.400;16.880;2022-07-25T04:50:27;7.90;;;5.00;;
24335;SDS011;33098;52.400;16.880;2022-07-25T04:52:54;7.80;;;4.90;;
24335;SDS011;33098;52.400;16.880;2022-07-25T04:55:21;5.80;;;4.60;;
24335;SDS011;33098;52.400;16.880;2022-07-25T04:57:47;7.40;;;5.00;;
24335;SDS011;33098;52.400;16.880;2022-07-25T05:00:14;5.90;;;5.00;;
24335;SDS011;33098;52.400;16.880;2022-07-25T05:02:41;9.00;;;5.30;;
24335;SDS011;33098;52.400;16.880;2022-07-25T05:05:08;7.20;;;5.20;;
24335;SDS011;33098;52.400;16.880;2022-07-25T05:07:35;8.30;;;5.50;;
24335;SDS011;33098;52.400;16.880;2022-07-25T05:10:03;5.80;;;4.90;;
24335;SDS011;33098;52.400;16.880;2022-07-25T05:12:30;6.90;;;5.10;;
24335;SDS011;33098;52.400;16.880;2022-07-25T05:14:57;7.40;;;4.70;;
24335;SDS011;33098;52.400;16.880;2022-07-25T05:17:23;4.90;;;4.40;;
24335;SDS011;33098;52.400;16.880;2022-07-25T05:19:50;5.60;;;4.70;;
24335;SDS011;33098;52.400;16.880;2022-07-25T05:22:16;5.50;;;4.00;;
24335;SDS011;33098;52.400;16.880;2022-07-25T05:24:43;6.00;;;4.40;;
24335;SDS011;33098;52.400;16.880;2022-07-25T05:27:10;5.10;;;3.90;;
24335;SDS011;33098;52.400;16.880;2022-07-25T05:29:36;6.30;;;4.30;;
24335;SDS011;33098;52.400;16.880;2022-07-25T05:32:03;8.10;;;4.00;;
24335;SDS011;33098;52.400;16.880;2022-07-25T05:34:30;6.70;;;4.10;;
24335;SDS011;33098;52.400;16.880;2022-07-25T05:36:56;4.80;;;4.20;;
24335;SDS011;33098;52.400;16.880;2022-07-25T05:39:23;4.60;;;3.60;;
24335;SDS011;33098;52.400;16.880;2022-07-25T05:41:49;4.60;;;3.50;;
24335;SDS011;33098;52.400;16.880;2022-07-25T05:44:16;4.50;;;3.80;;
24335;SDS011;33098;52.400;16.880;2022-07-25T05:46:42;5.20;;;3.90;;
24335;SDS011;33098;52.400;16.880;2022-07-25T05:49:09;5.00;;;4.00;;
24335;SDS011;33098;52.400;16.880;2022-07-25T05:51:36;4.60;;;3.90;;
24335;SDS011;33098;52.400;16.880;2022-07-25T05:54:02;5.30;;;3.70;;
24335;SDS011;33098;52.400;16.880;2022-07-25T05:56:29;7.40;;;3.90;;
24335;SDS011;33098;52.400;16.880;2022-07-25T05:58:55;8.00;;;3.70;;
24335;SDS011;33098;52.400;16.880;2022-07-25T06:01:22;8.00;;;3.90;;
24335;SDS011;33098;52.400;16.880;2022-07-25T06:03:49;6.10;;;4.00;;
24335;SDS011;33098;52.400;16.880;2022-07-25T06:06:15;10.30;;;7.10;;
24335;SDS011;33098;52.400;16.880;2022-07-25T06:08:42;5.20;;;4.00;;
24335;SDS011;33098;52.400;16.880;2022-07-25T06:11:09;6.70;;;3.70;;
24335;SDS011;33098;52.400;16.880;2022-07-25T06:13:36;6.40;;;3.80;;
24335;SDS011;33098;52.400;16.880;2022-07-25T06:16:02;5.40;;;3.80;;
24335;SDS011;33098;52.400;16.880;2022-07-25T06:18:29;8.20;;;3.90;;
24335;SDS011;33098;52.400;16.880;2022-07-25T06:20:56;6.90;;;3.70;;
24335;SDS011;33098;52.400;16.880;2022-07-25T06:23:22;7.60;;;3.70;;
24335;SDS011;33098;52.400;16.880;2022-07-25T06:25:49;6.10;;;3.70;;
24335;SDS011;33098;52.400;16.880;2022-07-25T06:28:15;7.10;;;3.60;;
24335;SDS011;33098;52.400;16.880;2022-07-25T06:30:43;4.30;;;3.30;;
24335;SDS011;33098;52.400;16.880;2022-07-25T06:33:11;4.50;;;3.50;;
24335;SDS011;33098;52.400;16.880;2022-07-25T06:35:38;7.10;;;3.50;;
24335;SDS011;33098;52.400;16.880;2022-07-25T06:38:07;4.90;;;3.30;;
24335;SDS011;33098;52.400;16.880;2022-07-25T06:40:33;4.70;;;3.30;;
24335;SDS011;33098;52.400;16.880;2022-07-25T06:43:00;6.30;;;2.90;;
24335;SDS011;33098;52.400;16.880;2022-07-25T06:45:26;4.50;;;2.90;;
24335;SDS011;33098;52.400;16.880;2022-07-25T06:47:53;3.40;;;2.70;;
24335;SDS011;33098;52.400;16.880;2022-07-25T06:50:19;5.80;;;3.10;;
24335;SDS011;33098;52.400;16.880;2022-07-25T06:52:46;4.00;;;2.60;;
24335;SDS011;33098;52.400;16.880;2022-07-25T06:55:14;2.90;;;2.60;;
24335;SDS011;33098;52.400;16.880;2022-07-25T06:57:41;3.40;;;2.60;;
24335;SDS011;33098;52.400;16.880;2022-07-25T07:00:09;3.30;;;2.60;;
24335;SDS011;33098;52.400;16.880;2022-07-25T07:02:48;5.60;;;2.90;;
24335;SDS011;33098;52.400;16.880;2022-07-25T07:05:22;4.60;;;2.40;;
24335;SDS011;33098;52.400;16.880;2022-07-25T07:07:49;5.40;;;2.30;;
24335;SDS011;33098;52.400;16.880;2022-07-25T07:10:16;3.60;;;2.40;;
24335;SDS011;33098;52.400;16.880;2022-07-25T07:12:43;3.30;;;2.40;;
24335;SDS011;33098;52.400;16.880;2022-07-25T07:15:10;3.90;;;2.60;;
24335;SDS011;33098;52.400;16.880;2022-07-25T07:17:37;3.00;;;2.60;;
24335;SDS011;33098;52.400;16.880;2022-07-25T07:20:04;5.30;;;2.50;;
24335;SDS011;33098;52.400;16.880;2022-07-25T07:22:41;3.10;;;2.00;;
24335;SDS011;33098;52.400;16.880;2022-07-25T07:25:08;2.60;;;1.90;;
24335;SDS011;33098;52.400;16.880;2022-07-25T07:27:35;2.40;;;2.20;;
24335;SDS011;33098;52.400;16.880;2022-07-25T07:30:02;2.00;;;1.80;;
24335;SDS011;33098;52.400;16.880;2022-07-25T07:32:29;3.90;;;2.00;;
24335;SDS011;33098;52.400;16.880;2022-07-25T07:34:55;4.60;;;2.00;;
24335;SDS011;33098;52.400;16.880;2022-07-25T07:37:22;3.60;;;2.00;;
24335;SDS011;33098;52.400;16.880;2022-07-25T07:39:48;5.50;;;2.30;;
24335;SDS011;33098;52.400;16.880;2022-07-25T07:42:15;3.40;;;2.30;;
24335;SDS011;33098;52.400;16.880;2022-07-25T07:44:41;2.40;;;1.80;;
24335;SDS011;33098;52.400;16.880;2022-07-25T07:47:08;3.60;;;2.00;;
24335;SDS011;33098;52.400;16.880;2022-07-25T07:49:34;2.40;;;2.20;;
24335;SDS011;33098;52.400;16.880;2022-07-25T07:52:01;3.60;;;2.30;;
24335;SDS011;33098;52.400;16.880;2022-07-25T07:54:27;2.70;;;2.10;;
24335;SDS011;33098;52.400;16.880;2022-07-25T07:57:13;2.10;;;1.90;;
24335;SDS011;33098;52.400;16.880;2022-07-25T07:59:39;2.80;;;1.80;;
24335;SDS011;33098;52.400;16.880;2022-07-25T08:02:06;4.10;;;1.90;;
24335;SDS011;33098;52.400;16.880;2022-07-25T08:04:32;2.40;;;1.80;;
24335;SDS011;33098;52.400;16.880;2022-07-25T08:06:59;3.20;;;1.80;;
24335;SDS011;33098;52.400;16.880;2022-07-25T08:09:25;4.60;;;1.80;;
24335;SDS011;33098;52.400;16.880;2022-07-25T08:11:52;1.60;;;1.50;;
24335;SDS011;33098;52.400;16.880;2022-07-25T08:14:18;5.50;;;2.00;;
24335;SDS011;33098;52.400;16.880;2022-07-25T08:16:45;5.90;;;2.00;;
24335;SDS011;33098;52.400;16.880;2022-07-25T08:19:11;3.30;;;1.90;;
24335;SDS011;33098;52.400;16.880;2022-07-25T08:21:38;2.80;;;1.60;;
24335;SDS011;33098;52.400;16.880;2022-07-25T08:24:05;2.40;;;1.70;;
24335;SDS011;33098;52.400;16.880;2022-07-25T08:26:31;2.50;;;1.70;;
24335;SDS011;33098;52.400;16.880;2022-07-25T08:28:59;3.20;;;1.90;;
24335;SDS011;33098;52.400;16.880;2022-07-25T08:31:25;2.60;;;1.90;;
24335;SDS011;33098;52.400;16.880;2022-07-25T08:33:53;3.50;;;1.60;;
24335;SDS011;33098;52.400;16.880;2022-07-25T08:36:19;2.60;;;1.70;;
24335;SDS011;33098;52.400;16.880;2022-07-25T08:38:46;2.90;;;1.50;;
24335;SDS011;33098;52.400;16.880;2022-07-25T08:41:12;2.90;;;1.60;;
24335;SDS011;33098;52.400;16.880;2022-07-25T08:43:39;2.10;;;1.40;;
24335;SDS011;33098;52.400;16.880;2022-07-25T08:46:07;1.90;;;1.50;;
24335;SDS011;33098;52.400;16.880;2022-07-25T08:48:34;2.30;;;1.50;;
24335;SDS011;33098;52.400;16.880;2022-07-25T08:51:01;2.10;;;1.50;;
24335;SDS011;33098;52.400;16.880;2022-07-25T08:53:30;2.00;;;1.80;;
24335;SDS011;33098;52.400;16.880;2022-07-25T08:55:58;3.00;;;1.50;;
24335;SDS011;33098;52.400;16.880;2022-07-25T08:58:24;3.00;;;1.80;;
24335;SDS011;33098;52.400;16.880;2022-07-25T09:00:51;2.10;;;1.40;;
24335;SDS011;33098;52.400;16.880;2022-07-25T09:03:17;1.70;;;1.50;;
24335;SDS011;33098;52.400;16.880;2022-07-25T09:05:44;2.30;;;1.50;;
24335;SDS011;33098;52.400;16.880;2022-07-25T09:08:12;1.60;;;1.50;;
24335;SDS011;33098;52.400;16.880;2022-07-25T09:10:44;3.80;;;1.70;;
24335;SDS011;33098;52.400;16.880;2022-07-25T09:13:13;2.10;;;1.40;;
24335;SDS011;33098;52.400;16.880;2022-07-25T09:18:12;1.70;;;1.60;;
24335;SDS011;33098;52.400;16.880;2022-07-25T09:20:42;2.10;;;1.70;;
24335;SDS011;33098;52.400;16.880;2022-07-25T09:23:14;2.40;;;1.70;;
24335;SDS011;33098;52.400;16.880;2022-07-25T09:26:10;2.80;;;1.60;;
24335;SDS011;33098;52.400;16.880;2022-07-25T09:28:48;1.90;;;1.30;;
24335;SDS011;33098;52.400;16.880;2022-07-25T09:31:16;2.80;;;1.40;;
24335;SDS011;33098;52.400;16.880;2022-07-25T09:36:20;2.40;;;1.70;;
24335;SDS011;33098;52.400;16.880;2022-07-25T09:38:54;5.60;;;1.80;;
24335;SDS011;33098;52.400;16.880;2022-07-25T09:41:32;1.40;;;1.30;;
24335;SDS011;33098;52.400;16.880;2022-07-25T09:44:02;2.80;;;1.40;;
24335;SDS011;33098;52.400;16.880;2022-07-25T09:46:30;3.70;;;1.50;;
24335;SDS011;33098;52.400;16.880;2022-07-25T09:48:58;2.90;;;1.60;;
24335;SDS011;33098;52.400;16.880;2022-07-25T09:51:25;1.70;;;1.30;;
24335;SDS011;33098;52.400;16.880;2022-07-25T09:53:53;2.60;;;1.40;;
24335;SDS011;33098;52.400;16.880;2022-07-25T09:56:19;2.60;;;1.70;;
24335;SDS011;33098;52.400;16.880;2022-07-25T09:58:46;2.20;;;1.40;;
24335;SDS011;33098;52.400;16.880;2022-07-25T10:01:13;4.80;;;1.40;;
24335;SDS011;33098;52.400;16.880;2022-07-25T10:06:21;1.50;;;1.30;;
24335;SDS011;33098;52.400;16.880;2022-07-25T10:08:56;1.30;;;1.20;;
24335;SDS011;33098;52.400;16.880;2022-07-25T10:11:24;3.70;;;1.50;;
24335;SDS011;33098;52.400;16.880;2022-07-25T10:13:53;1.80;;;1.40;;
24335;SDS011;33098;52.400;16.880;2022-07-25T10:16:21;2.50;;;1.40;;
24335;SDS011;33098;52.400;16.880;2022-07-25T10:18:50;2.20;;;1.30;;
24335;SDS011;33098;52.400;16.880;2022-07-25T10:21:22;3.00;;;1.60;;
24335;SDS011;33098;52.400;16.880;2022-07-25T10:23:57;2.50;;;1.50;;
24335;SDS011;33098;52.400;16.880;2022-07-25T10:26:25;2.00;;;1.30;;
24335;SDS011;33098;52.400;16.880;2022-07-25T10:28:52;1.60;;;1.40;;
24335;SDS011;33098;52.400;16.880;2022-07-25T10:33:58;2.10;;;1.40;;
24335;SDS011;33098;52.400;16.880;2022-07-25T10:36:28;2.20;;;1.30;;
24335;SDS011;33098;52.400;16.880;2022-07-25T10:39:10;1.40;;;1.30;;
24335;SDS011;33098;52.400;16.880;2022-07-25T10:41:40;1.80;;;1.50;;
24335;SDS011;33098;52.400;16.880;2022-07-25T10:44:12;3.30;;;1.40;;
24335;SDS011;33098;52.400;16.880;2022-07-25T10:46:41;1.60;;;1.40;;
24335;SDS011;33098;52.400;16.880;2022-07-25T10:49:22;1.50;;;1.40;;
24335;SDS011;33098;52.400;16.880;2022-07-25T10:51:56;2.20;;;1.40;;
24335;SDS011;33098;52.400;16.880;2022-07-25T10:54:30;2.40;;;1.60;;
24335;SDS011;33098;52.400;16.880;2022-07-25T10:56:59;1.60;;;1.50;;
24335;SDS011;33098;52.400;16.880;2022-07-25T11:02:05;2.00;;;1.60;;
24335;SDS011;33098;52.400;16.880;2022-07-25T11:04:35;2.80;;;1.60;;
24335;SDS011;33098;52.400;16.880;2022-07-25T11:07:08;2.50;;;1.50;;
24335;SDS011;33098;52.400;16.880;2022-07-25T11:09:36;2.00;;;1.50;;
24335;SDS011;33098;52.400;16.880;2022-07-25T11:12:03;1.80;;;1.50;;
24335;SDS011;33098;52.400;16.880;2022-07-25T11:14:31;1.90;;;1.60;;
24335;SDS011;33098;52.400;16.880;2022-07-25T11:17:10;3.00;;;1.40;;
24335;SDS011;33098;52.400;16.880;2022-07-25T11:20:01;2.10;;;1.60;;
24335;SDS011;33098;52.400;16.880;2022-07-25T11:22:32;2.60;;;1.40;;
24335;SDS011;33098;52.400;16.880;2022-07-25T11:25:00;1.80;;;1.60;;
24335;SDS011;33098;52.400;16.880;2022-07-25T11:27:34;1.40;;;1.30;;
24335;SDS011;33098;52.400;16.880;2022-07-25T11:32:49;2.20;;;1.30;;
24335;SDS011;33098;52.400;16.880;2022-07-25T11:35:25;4.30;;;1.80;;
24335;SDS011;33098;52.400;16.880;2022-07-25T11:37:53;2.50;;;1.60;;
24335;SDS011;33098;52.400;16.880;2022-07-25T11:40:21;4.40;;;1.60;;
24335;SDS011;33098;52.400;16.880;2022-07-25T11:42:49;1.90;;;1.50;;
24335;SDS011;33098;52.400;16.880;2022-07-25T11:45:25;2.30;;;1.50;;
24335;SDS011;33098;52.400;16.880;2022-07-25T11:48:10;2.00;;;1.40;;
24335;SDS011;33098;52.400;16.880;2022-07-25T11:50:40;2.70;;;1.50;;
24335;SDS011;33098;52.400;16.880;2022-07-25T11:55:37;2.60;;;1.50;;
24335;SDS011;33098;52.400;16.880;2022-07-25T11:58:08;3.50;;;2.00;;
24335;SDS011;33098;52.400;16.880;2022-07-25T12:00:40;4.30;;;1.60;;
24335;SDS011;33098;52.400;16.880;2022-07-25T12:03:09;2.80;;;1.50;;
24335;SDS011;33098;52.400;16.880;2022-07-25T12:05:38;2.00;;;1.30;;
24335;SDS011;33098;52.400;16.880;2022-07-25T12:08:11;1.60;;;1.30;;
24335;SDS011;33098;52.400;16.880;2022-07-25T12:10:39;2.30;;;1.40;;
24335;SDS011;33098;52.400;16.880;2022-07-25T12:13:07;2.70;;;1.50;;
24335;SDS011;33098;52.400;16.880;2022-07-25T12:15:36;2.30;;;1.40;;
24335;SDS011;33098;52.400;16.880;2022-07-25T12:18:05;2.00;;;1.50;;
24335;SDS011;33098;52.400;16.880;2022-07-25T12:20:38;1.60;;;1.50;;
24335;SDS011;33098;52.400;16.880;2022-07-25T12:23:08;4.00;;;1.60;;
24335;SDS011;33098;52.400;16.880;2022-07-25T12:25:37;2.60;;;1.50;;
24335;SDS011;33098;52.400;16.880;2022-07-25T12:28:05;2.30;;;1.60;;
24335;SDS011;33098;52.400;16.880;2022-07-25T12:30:32;1.80;;;1.50;;
24335;SDS011;33098;52.400;16.880;2022-07-25T12:32:59;1.50;;;1.40;;
24335;SDS011;33098;52.400;16.880;2022-07-25T12:35:26;2.80;;;1.60;;
24335;SDS011;33098;52.400;16.880;2022-07-25T12:37:53;3.70;;;1.60;;
24335;SDS011;33098;52.400;16.880;2022-07-25T12:40:21;1.90;;;1.50;;
24335;SDS011;33098;52.400;16.880;2022-07-25T12:42:47;2.40;;;1.50;;
24335;SDS011;33098;52.400;16.880;2022-07-25T12:45:15;1.60;;;1.50;;
24335;SDS011;33098;52.400;16.880;2022-07-25T12:47:43;1.60;;;1.50;;
24335;SDS011;33098;52.400;16.880;2022-07-25T12:50:11;2.50;;;1.50;;
24335;SDS011;33098;52.400;16.880;2022-07-25T12:52:39;1.50;;;1.40;;
24335;SDS011;33098;52.400;16.880;2022-07-25T12:55:07;1.50;;;1.40;;
24335;SDS011;33098;52.400;16.880;2022-07-25T12:57:35;1.80;;;1.60;;
24335;SDS011;33098;52.400;16.880;2022-07-25T13:00:06;3.30;;;1.60;;
24335;SDS011;33098;52.400;16.880;2022-07-25T13:02:35;1.40;;;1.30;;
24335;SDS011;33098;52.400;16.880;2022-07-25T13:05:02;2.00;;;1.50;;
24335;SDS011;33098;52.400;16.880;2022-07-25T13:07:29;4.70;;;1.50;;
24335;SDS011;33098;52.400;16.880;2022-07-25T13:09:55;3.00;;;1.60;;
24335;SDS011;33098;52.400;16.880;2022-07-25T13:12:22;1.60;;;1.40;;
24335;SDS011;33098;52.400;16.880;2022-07-25T13:14:49;2.00;;;1.80;;
24335;SDS011;33098;52.400;16.880;2022-07-25T13:17:16;2.70;;;1.70;;
24335;SDS011;33098;52.400;16.880;2022-07-25T13:19:43;2.40;;;1.60;;
24335;SDS011;33098;52.400;16.880;2022-07-25T13:22:09;1.90;;;1.50;;
24335;SDS011;33098;52.400;16.880;2022-07-25T13:24:36;3.40;;;1.60;;
24335;SDS011;33098;52.400;16.880;2022-07-25T13:27:04;2.00;;;1.70;;
24335;SDS011;33098;52.400;16.880;2022-07-25T13:29:31;2.00;;;1.40;;
24335;SDS011;33098;52.400;16.880;2022-07-25T13:31:58;3.00;;;1.70;;
24335;SDS011;33098;52.400;16.880;2022-07-25T13:34:25;3.00;;;1.50;;
24335;SDS011;33098;52.400;16.880;2022-07-25T13:36:51;3.70;;;1.70;;
24335;SDS011;33098;52.400;16.880;2022-07-25T13:39:18;2.60;;;1.70;;
24335;SDS011;33098;52.400;16.880;2022-07-25T13:44:14;2.20;;;1.60;;
24335;SDS011;33098;52.400;16.880;2022-07-25T13:46:41;1.70;;;1.60;;
24335;SDS011;33098;52.400;16.880;2022-07-25T13:49:08;2.90;;;1.40;;
24335;SDS011;33098;52.400;16.880;2022-07-25T13:51:34;2.00;;;1.50;;
24335;SDS011;33098;52.400;16.880;2022-07-25T13:54:01;2.50;;;1.60;;
24335;SDS011;33098;52.400;16.880;2022-07-25T13:56:29;1.70;;;1.60;;
24335;SDS011;33098;52.400;16.880;2022-07-25T13:58:56;4.60;;;2.00;;
24335;SDS011;33098;52.400;16.880;2022-07-25T14:01:22;1.70;;;1.60;;
24335;SDS011;33098;52.400;16.880;2022-07-25T14:06:18;5.40;;;1.80;;
24335;SDS011;33098;52.400;16.880;2022-07-25T14:08:44;3.00;;;1.80;;
24335;SDS011;33098;52.400;16.880;2022-07-25T14:11:11;2.10;;;1.50;;
24335;SDS011;33098;52.400;16.880;2022-07-25T14:13:37;3.80;;;1.80;;
24335;SDS011;33098;52.400;16.880;2022-07-25T14:16:04;2.10;;;2.00;;
24335;SDS011;33098;52.400;16.880;2022-07-25T14:18:30;2.20;;;1.80;;
24335;SDS011;33098;52.400;16.880;2022-07-25T14:20:58;2.70;;;1.80;;
24335;SDS011;33098;52.400;16.880;2022-07-25T14:23:25;3.00;;;1.80;;
24335;SDS011;33098;52.400;16.880;2022-07-25T14:25:52;3.80;;;1.80;;
24335;SDS011;33098;52.400;16.880;2022-07-25T14:28:18;3.10;;;1.80;;
24335;SDS011;33098;52.400;16.880;2022-07-25T14:30:45;2.10;;;2.00;;
24335;SDS011;33098;52.400;16.880;2022-07-25T14:33:11;2.40;;;1.90;;
24335;SDS011;33098;52.400;16.880;2022-07-25T14:35:38;2.50;;;2.00;;
24335;SDS011;33098;52.400;16.880;2022-07-25T14:38:04;3.00;;;2.00;;
24335;SDS011;33098;52.400;16.880;2022-07-25T14:40:31;5.30;;;2.30;;
24335;SDS011;33098;52.400;16.880;2022-07-25T14:42:57;2.00;;;1.90;;
24335;SDS011;33098;52.400;16.880;2022-07-25T14:45:24;2.40;;;2.10;;
24335;SDS011;33098;52.400;16.880;2022-07-25T14:47:51;2.50;;;2.30;;
24335;SDS011;33098;52.400;16.880;2022-07-25T14:50:17;3.10;;;2.20;;
24335;SDS011;33098;52.400;16.880;2022-07-25T14:52:43;3.40;;;2.40;;
24335;SDS011;33098;52.400;16.880;2022-07-25T14:55:10;3.20;;;2.90;;
24335;SDS011;33098;52.400;16.880;2022-07-25T14:57:36;2.60;;;2.40;;
24335;SDS011;33098;52.400;16.880;2022-07-25T15:00:03;5.30;;;2.50;;